CYCP

Details ICAO CYCP
Name BLUE RIVER
Region Canada
Timezone America/Vancouver (UTC-7.0)
Plans Departing 1
Arriving 5
Stats Elevation 2,240 ft / 683 m (AMSL)
Location 52.116667° -119.284725°
Runways 1
Magnetic Variation 16.054° E
Sunrise 2018-05-24 11:51:44 UTC / 2018-05-24 04:51:44 Local
Sunset 2018-05-25 03:59:09 UTC / 2018-05-24 20:59:09 Local
Advertisement - Login to hide

Runways

ID Width Length Bearing (true) Bearing (mag) Surface Threshold Offset Overrun Length
01 60 ft / 18 m 4,997 ft / 1,523 m 31.56° 15.51° Asphalt 0 ft / 0 m 0 ft / 0 m
19 60 ft / 18 m 4,997 ft / 1,523 m 211.57° 195.52° Asphalt 0 ft / 0 m 0 ft / 0 m

Map

Weather


0- 5 10 15 20 25 30 35+ Temperature / ° C

Clouds and Precipitation
Forecast for 2018-05-24 12:00 UTC. Updated 5 hours ago

Ground ~20,000 ft ~40,000 ft Winds

METAR

CYCP 241500Z 00000KT 15SM BKN110 12/08 A2985 RMK AC6 CB EMBDD SLP110 DENSITY ALT 2500FT

TAF

Not found

Frequencies

Unicom 123.20 MHz CTAF
Warning: Do not use this data for real-world aviation or navigation. No guarantee of current accuracy is given.